Kirksville Municipal Airport

About
Name: Kirksville Municipal Airport
Identifier:  IRK/KIRK
Serves:  Kirksville, Missouri
Owner:  City of Kirksville
Public/Private:  Public
Local Time:  15. Sep 08:52 CDT
Description: Kirksville Regional Airport is seven miles southeast of Kirksville, in Pettis Township, near the village of Millard. One airline schedules passenger flights, subsidized by the Essential Air Service program.
Source: Wikipedia
Location
Runways
Identifier Length (m/ft) Surface
18/36 6,005/6,005 Concrete
9/27 1,370/1,370 Turf
Statistics
Flights per Day:
4 flights
Distance: 240km (149mi)
Flights delayed:
96% (0 flights per day delayed)
Delay Average: 1210 minutes
Current Weather
 22 C (Humidity: 94%)
  8kt (14km/h / 9mph) from 180°
  Overcast at 8,500 feet (2,590 meter)
  16km (10 mi.)
 METAR KIRK 151321Z AUTO 18008KT 10SM OVC085 22/21 A3007 RMK AO2 LTG DSNT E-S T02220206 PNO $

Current Flights

Arrivals
Number Arrival From Airline
On time 9K1161 10:20  St. Louis  Cape Air
On time 9K1169 14:00  St. Louis  Cape Air
On time 9K1173 17:05  St. Louis  Cape Air
On time 9K1179 20:35  St. Louis  Cape Air

Current Delays

Departures
N/A
Arrivals
N/A

Destinations

Top Destinations
Airport Flights
per week
Seats
per week
  St. Louis (STL) 21 - 3 0
  Kansas City (MKC) 0 - 0 0

Airlines & Planes

Top Airlines
Airline Flights
per Day
Seats
per Day
  Cape Air 3 -
Central Airlines 0 -
Top Plane Types
Model Flights Seats
Cessna C402 3.1/day - 0
Aero Commander 500-S 0.0/day - 0